createdAt,value
2024-02-27T00:01:01.146Z,14.07
2024-02-27T00:03:28.261Z,15.07
2024-02-27T00:05:55.449Z,13.75
2024-02-27T00:08:22.538Z,14.00
2024-02-27T00:10:49.489Z,13.93
2024-02-27T00:13:16.691Z,13.35
2024-02-27T00:15:43.964Z,13.75
2024-02-27T00:21:58.156Z,11.70
2024-02-27T00:24:25.173Z,13.32
2024-02-27T00:26:52.205Z,13.68
2024-02-27T00:29:23.011Z,13.40
2024-02-27T00:31:50.089Z,13.57
2024-02-27T00:34:17.441Z,13.30
2024-02-27T00:36:44.698Z,13.35
2024-02-27T00:39:11.799Z,11.68
2024-02-27T00:41:42.176Z,13.05
2024-02-27T00:44:11.090Z,12.45
2024-02-27T00:46:39.263Z,11.95
2024-02-27T00:49:06.500Z,10.45
2024-02-27T00:51:33.592Z,9.82
2024-02-27T00:54:01.166Z,9.70
2024-02-27T00:56:28.454Z,9.05
2024-02-27T00:58:55.471Z,8.93
2024-02-27T01:01:22.494Z,9.20
2024-02-27T01:03:49.445Z,8.18
2024-02-27T01:06:16.782Z,8.43
2024-02-27T01:08:43.841Z,7.85
2024-02-27T01:11:10.769Z,7.05
2024-02-27T01:13:37.974Z,8.15
2024-02-27T01:16:05.288Z,7.40
2024-02-27T01:18:32.477Z,7.32
2024-02-27T01:21:02.130Z,7.07
2024-02-27T01:23:29.443Z,7.18
2024-02-27T01:25:56.399Z,6.35
2024-02-27T01:28:23.408Z,7.45
2024-02-27T01:30:51.297Z,7.35
2024-02-27T01:33:18.382Z,7.18
2024-02-27T01:35:46.183Z,8.63
2024-02-27T01:38:13.193Z,6.40
2024-02-27T01:40:40.216Z,8.05
2024-02-27T01:43:24.422Z,7.78
2024-02-27T01:46:15.009Z,7.05
2024-02-27T01:48:43.591Z,8.15
2024-02-27T01:51:13.051Z,7.75
2024-02-27T01:53:41.964Z,7.35
2024-02-27T01:56:11.484Z,7.55
2024-02-27T01:58:39.750Z,8.35
2024-02-27T02:01:08.584Z,8.02
2024-02-27T02:03:46.560Z,7.35
2024-02-27T02:06:13.691Z,8.48
2024-02-27T02:08:40.827Z,7.38
2024-02-27T02:11:10.105Z,8.10
2024-02-27T02:13:37.764Z,7.45
2024-02-27T02:16:05.237Z,7.60
2024-02-27T02:18:32.450Z,8.32
2024-02-27T02:21:01.493Z,8.50
2024-02-27T02:23:28.755Z,8.35
2024-02-27T02:25:57.532Z,9.43
2024-02-27T02:28:24.514Z,8.45
2024-02-27T02:30:51.718Z,9.48
2024-02-27T02:33:18.989Z,9.57
2024-02-27T02:35:46.376Z,11.00
2024-02-27T02:38:13.910Z,10.40
2024-02-27T02:40:40.987Z,10.18
2024-02-27T02:43:08.000Z,11.05
2024-02-27T02:45:35.166Z,10.82
2024-02-27T02:48:02.606Z,10.48
2024-02-27T02:50:31.280Z,11.45
2024-02-27T02:52:59.086Z,10.90
2024-02-27T02:55:26.992Z,11.13
2024-02-27T02:57:54.173Z,12.13
2024-02-27T03:00:21.358Z,12.63
2024-02-27T03:02:48.490Z,11.75
2024-02-27T03:05:15.790Z,12.48
2024-02-27T03:07:43.246Z,11.88
2024-02-27T03:10:10.805Z,12.48
2024-02-27T03:12:44.883Z,11.95
2024-02-27T03:15:12.536Z,11.68
2024-02-27T03:17:39.661Z,12.13
2024-02-27T03:20:07.552Z,11.55
2024-02-27T03:22:34.504Z,13.80
2024-02-27T03:25:07.254Z,12.75
2024-02-27T03:27:35.447Z,12.82
2024-02-27T03:30:03.246Z,12.73
2024-02-27T03:32:30.449Z,14.80
2024-02-27T03:34:57.718Z,14.68
2024-02-27T03:37:24.991Z,14.30
2024-02-27T03:39:51.925Z,15.20
2024-02-27T03:42:19.019Z,13.77
2024-02-27T03:44:49.162Z,14.27
2024-02-27T03:47:16.543Z,14.70
2024-02-27T03:49:43.877Z,15.90
2024-02-27T03:52:12.005Z,16.15
2024-02-27T03:54:39.141Z,15.45
2024-02-27T03:57:06.588Z,17.02
2024-02-27T03:59:33.739Z,16.98
2024-02-27T04:02:00.709Z,16.98
2024-02-27T04:04:28.186Z,17.55
2024-02-27T04:06:55.228Z,18.15
2024-02-27T04:09:22.510Z,17.33
2024-02-27T04:11:49.507Z,17.80
2024-02-27T04:14:16.473Z,18.65
2024-02-27T04:16:43.432Z,18.55
2024-02-27T04:19:10.448Z,17.60
2024-02-27T04:21:37.607Z,18.58
2024-02-27T04:24:04.830Z,18.15
2024-02-27T04:26:31.764Z,18.23
2024-02-27T04:28:58.783Z,18.30
2024-02-27T04:31:25.903Z,18.80
2024-02-27T04:33:52.875Z,17.52
2024-02-27T04:36:21.028Z,18.80
2024-02-27T04:38:48.358Z,16.25
2024-02-27T04:41:15.398Z,17.15
2024-02-27T04:43:42.365Z,17.25
2024-02-27T04:46:09.285Z,16.52
2024-02-27T04:48:36.504Z,16.63
2024-02-27T04:51:03.766Z,14.02
2024-02-27T04:53:30.790Z,15.10
2024-02-27T04:55:57.720Z,15.77
2024-02-27T04:58:24.759Z,14.07
2024-02-27T05:00:51.791Z,13.85
2024-02-27T05:03:19.035Z,13.98
2024-02-27T05:05:46.080Z,14.85
2024-02-27T05:08:13.081Z,14.80
2024-02-27T05:10:40.076Z,15.63
2024-02-27T05:13:07.025Z,14.85
2024-02-27T05:15:34.126Z,15.98
2024-02-27T05:18:02.570Z,15.80
2024-02-27T05:20:29.673Z,15.43
2024-02-27T05:22:56.634Z,17.98
2024-02-27T05:25:23.575Z,16.58
2024-02-27T05:27:50.511Z,16.17
2024-02-27T05:30:17.856Z,15.80
2024-02-27T05:32:44.863Z,15.90
2024-02-27T05:35:11.902Z,15.48
2024-02-27T05:37:39.038Z,15.20
2024-02-27T05:40:09.840Z,15.18
2024-02-27T05:42:36.926Z,15.07
2024-02-27T05:45:05.473Z,16.17
2024-02-27T05:47:32.626Z,16.67
2024-02-27T05:49:59.673Z,16.73
2024-02-27T05:52:26.717Z,17.08
2024-02-27T05:54:53.778Z,17.17
2024-02-27T05:57:20.935Z,18.27
2024-02-27T05:59:48.112Z,15.75
2024-02-27T06:02:16.303Z,16.75
2024-02-27T06:04:43.353Z,17.13
2024-02-27T06:07:10.464Z,16.73
2024-02-27T06:09:37.973Z,17.13
2024-02-27T06:12:05.416Z,17.23
2024-02-27T06:14:32.388Z,16.88
2024-02-27T06:16:59.480Z,16.67
2024-02-27T06:19:28.362Z,16.10
2024-02-27T06:22:14.396Z,16.83
2024-02-27T06:24:41.949Z,16.90
2024-02-27T06:27:10.170Z,17.17
2024-02-27T06:29:37.406Z,18.00
2024-02-27T06:32:07.354Z,17.35
2024-02-27T06:34:34.453Z,16.38
2024-02-27T06:37:02.222Z,15.02
2024-02-27T06:39:29.397Z,15.15
2024-02-27T06:41:56.406Z,15.85
2024-02-27T06:44:23.395Z,17.15
2024-02-27T06:46:50.451Z,15.38
2024-02-27T06:49:22.797Z,16.42
2024-02-27T06:51:50.868Z,15.75
2024-02-27T06:54:18.366Z,15.57
2024-02-27T06:56:45.356Z,15.38
2024-02-27T06:59:12.519Z,13.95
2024-02-27T07:01:39.468Z,13.82
2024-02-27T07:04:06.665Z,14.50
2024-02-27T07:06:33.820Z,14.10
2024-02-27T07:09:00.957Z,12.82
2024-02-27T07:11:29.331Z,13.50
2024-02-27T07:13:56.550Z,14.05
2024-02-27T07:16:23.575Z,13.80
2024-02-27T07:18:50.697Z,14.65
2024-02-27T07:21:20.380Z,14.48
2024-02-27T07:23:48.148Z,15.20
2024-02-27T07:26:15.343Z,15.93
2024-02-27T07:28:45.407Z,15.32
2024-02-27T07:31:12.715Z,15.73
2024-02-27T07:33:39.932Z,14.18
2024-02-27T07:36:07.467Z,15.32
2024-02-27T07:38:34.648Z,15.93
2024-02-27T07:41:01.634Z,13.88
2024-02-27T07:43:28.963Z,13.82
2024-02-27T07:45:57.296Z,14.43
2024-02-27T07:48:24.732Z,13.07
2024-02-27T07:50:55.702Z,13.07
2024-02-27T07:53:23.180Z,12.52
2024-02-27T07:55:50.812Z,13.30
2024-02-27T07:58:17.826Z,13.60
2024-02-27T08:00:44.999Z,11.77
2024-02-27T08:03:12.329Z,12.77
2024-02-27T08:05:39.448Z,13.15
2024-02-27T08:08:07.386Z,14.63
2024-02-27T08:10:34.560Z,11.85
2024-02-27T08:13:01.541Z,11.65
2024-02-27T08:15:28.563Z,11.75
2024-02-27T08:17:55.700Z,12.27
2024-02-27T08:20:22.766Z,12.07
2024-02-27T08:22:49.867Z,11.23
2024-02-27T08:25:16.931Z,11.45
2024-02-27T08:27:44.035Z,11.45
2024-02-27T08:30:11.539Z,11.60
2024-02-27T08:32:38.650Z,10.10
2024-02-27T08:35:06.954Z,9.65
2024-02-27T08:37:33.948Z,10.40
2024-02-27T08:40:01.021Z,11.95
2024-02-27T08:42:28.108Z,10.70
2024-02-27T08:44:55.613Z,10.57
2024-02-27T08:47:23.972Z,9.65
2024-02-27T08:49:51.159Z,10.20
2024-02-27T08:52:18.230Z,9.27
2024-02-27T08:54:45.223Z,10.32
2024-02-27T08:57:13.689Z,9.82
2024-02-27T08:59:44.712Z,10.10
2024-02-27T09:02:11.912Z,11.77
2024-02-27T09:04:39.168Z,11.80
2024-02-27T09:07:06.405Z,10.90
2024-02-27T09:09:33.518Z,9.82
2024-02-27T09:12:00.691Z,10.00
2024-02-27T09:14:27.869Z,10.15
2024-02-27T09:16:54.892Z,11.13
2024-02-27T09:19:22.011Z,9.95
2024-02-27T09:21:49.219Z,9.65
2024-02-27T09:24:16.334Z,10.68
2024-02-27T09:26:43.305Z,11.10
2024-02-27T09:29:10.291Z,9.98
2024-02-27T09:31:37.462Z,11.48
2024-02-27T09:34:07.945Z,9.90
2024-02-27T09:36:35.013Z,9.35
2024-02-27T09:39:02.393Z,10.18
2024-02-27T09:42:02.008Z,10.60
2024-02-27T09:44:28.992Z,9.80
2024-02-27T09:46:56.365Z,11.00
2024-02-27T09:49:33.237Z,9.25
2024-02-27T09:52:11.666Z,8.13
2024-02-27T09:54:39.609Z,7.53
2024-02-27T09:57:07.286Z,7.90
2024-02-27T09:59:34.950Z,9.05
2024-02-27T10:02:14.062Z,7.15
2024-02-27T10:04:42.363Z,8.15
2024-02-27T10:07:11.840Z,6.97
2024-02-27T10:09:48.510Z,6.93
2024-02-27T10:12:15.838Z,7.28
2024-02-27T10:14:43.059Z,6.70
2024-02-27T10:17:10.984Z,6.90
2024-02-27T10:19:39.039Z,6.43
2024-02-27T10:22:06.883Z,6.90
2024-02-27T10:24:34.090Z,7.43
2024-02-27T10:27:05.529Z,7.38
2024-02-27T10:29:33.821Z,7.07
2024-02-27T10:32:01.422Z,8.07
2024-02-27T10:34:30.901Z,7.63
2024-02-27T10:37:02.605Z,8.30
2024-02-27T10:39:30.471Z,9.00
2024-02-27T10:41:58.529Z,8.88
2024-02-27T10:44:27.482Z,9.25
2024-02-27T10:46:59.854Z,8.68
2024-02-27T10:49:28.062Z,7.80
2024-02-27T10:51:56.344Z,7.93
2024-02-27T10:54:25.266Z,6.88
2024-02-27T10:56:54.840Z,7.22
2024-02-27T10:59:24.848Z,9.43
2024-02-27T11:01:53.999Z,8.35
2024-02-27T11:04:25.260Z,7.63
2024-02-27T11:06:55.557Z,8.05
2024-02-27T11:09:27.225Z,8.60
2024-02-27T11:11:57.277Z,6.88
2024-02-27T11:14:30.802Z,8.35
2024-02-27T11:17:05.579Z,8.10
2024-02-27T11:19:38.292Z,7.78
2024-02-27T11:22:06.157Z,8.95
2024-02-27T11:24:33.253Z,8.45
2024-02-27T11:27:00.263Z,9.43
2024-02-27T11:29:27.814Z,8.25
2024-02-27T11:31:55.179Z,9.30
2024-02-27T11:34:25.904Z,8.80
2024-02-27T11:37:15.827Z,9.98
2024-02-27T11:39:44.560Z,8.52
2024-02-27T11:42:27.275Z,8.23
2024-02-27T11:45:13.328Z,8.38
2024-02-27T11:47:49.727Z,8.52
2024-02-27T11:50:39.442Z,10.23
2024-02-27T11:53:23.120Z,11.75
2024-02-27T11:55:55.313Z,8.93
2024-02-27T11:58:23.092Z,9.10
2024-02-27T12:00:54.405Z,9.07
2024-02-27T12:03:22.696Z,9.48
2024-02-27T12:05:52.735Z,10.10
2024-02-27T12:08:22.421Z,10.48
2024-02-27T12:10:49.976Z,9.68
2024-02-27T12:13:17.835Z,9.63
2024-02-27T12:15:45.044Z,9.15
2024-02-27T12:18:12.376Z,9.25
2024-02-27T12:20:40.321Z,10.48
2024-02-27T12:23:07.282Z,9.30
2024-02-27T12:25:45.952Z,10.23
2024-02-27T12:28:15.928Z,10.60
2024-02-27T12:30:48.127Z,10.93
2024-02-27T12:33:17.074Z,11.32
2024-02-27T12:35:45.407Z,10.77
2024-02-27T12:38:12.478Z,11.45
2024-02-27T12:40:40.548Z,11.15
2024-02-27T12:43:07.699Z,11.77
2024-02-27T12:45:34.933Z,10.18
2024-02-27T12:48:04.461Z,12.13
2024-02-27T12:50:31.954Z,12.35
2024-02-27T12:53:11.248Z,12.68
2024-02-27T12:55:40.913Z,13.57
2024-02-27T12:58:08.133Z,13.10
2024-02-27T13:00:35.658Z,13.65
2024-02-27T13:03:04.998Z,14.63
2024-02-27T13:05:34.210Z,13.88
2024-02-27T13:08:02.686Z,17.45
2024-02-27T13:10:30.599Z,14.13
2024-02-27T13:13:22.645Z,15.07
2024-02-27T13:15:51.098Z,13.15
2024-02-27T13:18:18.747Z,15.13
2024-02-27T13:20:47.172Z,15.15
2024-02-27T13:23:21.711Z,15.15
2024-02-27T13:25:54.934Z,14.88
2024-02-27T13:28:22.139Z,12.90
2024-02-27T13:30:49.421Z,14.40
2024-02-27T13:33:17.586Z,13.63
2024-02-27T13:35:44.853Z,14.93
2024-02-27T13:38:12.035Z,15.27
2024-02-27T13:40:39.086Z,14.65
2024-02-27T13:43:06.211Z,15.80
2024-02-27T13:45:33.323Z,15.60
2024-02-27T13:48:00.470Z,14.60
2024-02-27T13:50:27.442Z,15.48
2024-02-27T13:52:54.436Z,15.20
2024-02-27T13:55:21.616Z,15.23
2024-02-27T13:57:48.760Z,16.55
2024-02-27T14:00:16.343Z,15.40
2024-02-27T14:02:43.424Z,16.42
2024-02-27T14:05:10.921Z,14.18
2024-02-27T14:07:38.605Z,15.80
2024-02-27T14:10:06.372Z,15.55
2024-02-27T14:12:33.827Z,17.88
2024-02-27T14:15:01.184Z,15.75
2024-02-27T14:17:28.319Z,16.15
2024-02-27T14:19:55.611Z,16.50
2024-02-27T14:22:23.177Z,14.10
2024-02-27T14:24:50.306Z,16.25
2024-02-27T14:27:17.425Z,16.00
2024-02-27T14:29:44.791Z,15.07
2024-02-27T14:32:11.974Z,16.13
2024-02-27T14:34:39.416Z,21.30
2024-02-27T14:37:06.960Z,16.42
2024-02-27T14:39:34.122Z,16.25
2024-02-27T14:42:01.235Z,14.15
2024-02-27T14:44:28.281Z,14.88
2024-02-27T14:46:55.863Z,14.70
2024-02-27T14:49:23.494Z,14.25
2024-02-27T14:51:56.896Z,14.15
2024-02-27T14:54:24.459Z,14.02
2024-02-27T14:56:52.496Z,13.73
2024-02-27T14:59:20.118Z,12.88
2024-02-27T15:01:53.931Z,13.73
2024-02-27T15:04:27.371Z,13.73
2024-02-27T15:06:54.617Z,13.27
2024-02-27T15:09:21.760Z,14.80
2024-02-27T15:11:48.815Z,14.25
2024-02-27T15:14:15.828Z,14.75
2024-02-27T15:16:42.908Z,16.05
2024-02-27T15:19:09.980Z,14.98
2024-02-27T15:21:37.013Z,16.58
2024-02-27T15:24:05.286Z,16.67
2024-02-27T15:26:32.400Z,14.13
2024-02-27T15:28:59.646Z,17.95
2024-02-27T15:31:26.735Z,13.57
2024-02-27T15:33:53.898Z,13.63
2024-02-27T15:36:21.064Z,14.60
2024-02-27T15:38:48.089Z,14.48
2024-02-27T15:41:15.065Z,15.35
2024-02-27T15:43:41.971Z,15.27
2024-02-27T15:46:12.324Z,13.88
2024-02-27T15:48:40.240Z,15.80
2024-02-27T15:51:12.697Z,15.88
2024-02-27T15:53:41.194Z,15.48
2024-02-27T15:56:09.257Z,17.48
2024-02-27T15:58:37.467Z,14.75
2024-02-27T16:01:05.490Z,17.95
2024-02-27T16:04:03.676Z,18.92
2024-02-27T16:06:49.698Z,15.75
2024-02-27T16:09:19.416Z,15.98
2024-02-27T16:11:46.563Z,16.95
2024-02-27T16:14:13.689Z,16.15
2024-02-27T16:16:40.915Z,17.23
2024-02-27T16:19:07.975Z,15.45
2024-02-27T16:21:43.061Z,18.13
2024-02-27T16:24:10.996Z,15.75
2024-02-27T16:26:41.836Z,16.30
2024-02-27T16:29:09.065Z,17.17
2024-02-27T16:31:36.269Z,19.23
2024-02-27T16:34:03.450Z,17.27
2024-02-27T16:36:30.793Z,19.20
2024-02-27T16:38:57.836Z,16.05
2024-02-27T16:41:25.181Z,16.65
2024-02-27T16:43:52.221Z,17.05
2024-02-27T16:46:19.273Z,19.17
2024-02-27T16:48:46.480Z,19.23
2024-02-27T16:51:13.672Z,18.10
2024-02-27T16:53:40.753Z,14.25
2024-02-27T16:56:07.983Z,14.95
2024-02-27T16:58:35.085Z,17.52
2024-02-27T17:01:02.611Z,14.57
2024-02-27T17:03:30.150Z,15.10
2024-02-27T17:06:01.494Z,15.75
2024-02-27T17:08:28.613Z,15.93
2024-02-27T17:10:57.139Z,15.77
2024-02-27T17:13:25.101Z,17.65
2024-02-27T17:15:52.671Z,16.40
2024-02-27T17:18:19.938Z,16.25
2024-02-27T17:20:49.337Z,16.45
2024-02-27T17:23:17.794Z,15.23
2024-02-27T17:25:45.164Z,17.65
2024-02-27T17:28:12.193Z,16.85
2024-02-27T17:30:39.632Z,17.20
2024-02-27T17:33:06.869Z,16.02
2024-02-27T17:35:34.094Z,16.75
2024-02-27T17:38:01.046Z,17.58
2024-02-27T17:40:28.097Z,17.75
2024-02-27T17:42:55.622Z,18.42
2024-02-27T17:45:23.079Z,19.25
2024-02-27T17:47:50.137Z,18.95
2024-02-27T17:50:17.774Z,18.17
2024-02-27T17:52:44.829Z,18.60
2024-02-27T17:55:11.954Z,17.55
2024-02-27T17:57:40.018Z,17.98
2024-02-27T18:00:08.341Z,17.48
2024-02-27T18:02:35.381Z,17.45
2024-02-27T18:05:02.423Z,17.52
2024-02-27T18:07:29.605Z,20.08
2024-02-27T18:09:56.674Z,25.17
2024-02-27T18:12:23.638Z,24.65
2024-02-27T18:14:50.700Z,22.75
2024-02-27T18:17:17.653Z,20.40
2024-02-27T18:19:44.995Z,18.20
2024-02-27T18:22:12.089Z,19.35
2024-02-27T18:24:39.257Z,21.13
2024-02-27T18:27:06.537Z,20.55
2024-02-27T18:29:35.301Z,18.20
2024-02-27T18:32:03.586Z,17.13
2024-02-27T18:34:30.637Z,17.33
2024-02-27T18:36:57.705Z,17.80
2024-02-27T18:39:24.726Z,20.70
2024-02-27T18:41:51.724Z,19.80
2024-02-27T18:44:18.926Z,20.30
2024-02-27T18:46:45.880Z,20.23
2024-02-27T18:49:13.142Z,18.80
2024-02-27T18:51:43.246Z,18.17
2024-02-27T18:54:10.401Z,18.60
2024-02-27T18:56:39.397Z,17.27
2024-02-27T18:59:06.810Z,16.10
2024-02-27T19:01:33.842Z,15.98
2024-02-27T19:04:00.864Z,17.45
2024-02-27T19:06:28.080Z,16.65
2024-02-27T19:08:55.247Z,14.55
2024-02-27T19:11:22.510Z,15.38
2024-02-27T19:13:49.671Z,17.67
2024-02-27T19:16:17.429Z,14.07
2024-02-27T19:18:44.504Z,16.15
2024-02-27T19:21:11.598Z,15.55
2024-02-27T19:23:38.672Z,15.60
2024-02-27T19:26:06.674Z,18.05
2024-02-27T19:28:38.812Z,16.92
2024-02-27T19:31:06.696Z,15.77
2024-02-27T19:37:21.323Z,12.82
2024-02-27T19:39:48.409Z,15.20
2024-02-27T19:42:15.902Z,15.40
2024-02-27T19:44:43.195Z,14.45
2024-02-27T19:47:10.689Z,14.50
2024-02-27T19:49:37.959Z,16.17
2024-02-27T19:52:05.145Z,15.48
2024-02-27T19:54:32.435Z,16.02
2024-02-27T19:56:59.657Z,16.60
2024-02-27T19:59:28.204Z,14.75
2024-02-27T20:01:55.550Z,16.77
2024-02-27T20:04:22.633Z,15.93
2024-02-27T20:06:49.866Z,15.32
2024-02-27T20:09:17.405Z,15.80
2024-02-27T20:11:45.712Z,14.50
2024-02-27T20:14:13.003Z,14.15
2024-02-27T20:16:39.974Z,13.68
2024-02-27T20:19:07.056Z,15.70
2024-02-27T20:21:34.210Z,14.07
2024-02-27T20:27:42.417Z,12.93
2024-02-27T20:30:09.975Z,14.25
2024-02-27T20:32:37.081Z,14.40
2024-02-27T20:35:04.866Z,14.82
2024-02-27T20:37:31.936Z,13.60
2024-02-27T20:39:58.990Z,14.18
2024-02-27T20:42:26.386Z,13.35
2024-02-27T20:44:54.537Z,14.40
2024-02-27T20:47:21.619Z,13.90
2024-02-27T20:49:48.696Z,14.35
2024-02-27T20:52:15.719Z,14.50
2024-02-27T20:54:42.837Z,17.45
2024-02-27T21:00:50.929Z,12.77
2024-02-27T21:03:17.963Z,13.10
2024-02-27T21:05:45.013Z,12.73
2024-02-27T21:08:11.957Z,12.73
2024-02-27T21:10:38.927Z,13.50
2024-02-27T21:13:05.999Z,14.50
2024-02-27T21:15:33.164Z,11.85
2024-02-27T21:18:00.256Z,14.07
2024-02-27T21:20:27.509Z,11.23
2024-02-27T21:22:54.589Z,14.02
2024-02-27T21:25:21.588Z,13.27
2024-02-27T21:27:53.868Z,15.20
2024-02-27T21:30:23.115Z,14.27
2024-02-27T21:32:50.445Z,12.23
2024-02-27T21:35:17.562Z,11.55
2024-02-27T21:37:44.708Z,12.43
2024-02-27T21:40:12.473Z,12.82
2024-02-27T21:42:39.528Z,11.77
2024-02-27T21:45:09.008Z,12.75
2024-02-27T21:47:36.894Z,12.35
2024-02-27T21:50:04.129Z,10.82
2024-02-27T21:52:31.105Z,11.23
2024-02-27T21:54:58.202Z,10.38
2024-02-27T21:57:25.630Z,12.02
2024-02-27T21:59:52.621Z,12.20
2024-02-27T22:02:20.075Z,11.20
2024-02-27T22:04:47.669Z,12.98
2024-02-27T22:07:15.762Z,11.63
2024-02-27T22:09:42.783Z,12.07
2024-02-27T22:12:09.951Z,12.45
2024-02-27T22:14:37.030Z,11.48
2024-02-27T22:17:04.103Z,11.60
2024-02-27T22:19:31.079Z,11.88
2024-02-27T22:21:58.100Z,11.98
2024-02-27T22:24:26.781Z,10.60
2024-02-27T22:26:54.050Z,11.48
2024-02-27T22:29:21.178Z,12.27
2024-02-27T22:31:48.455Z,10.38
2024-02-27T22:34:15.536Z,11.20
2024-02-27T22:40:23.664Z,10.98
2024-02-27T22:42:50.667Z,11.27
2024-02-27T22:45:17.630Z,10.98
2024-02-27T22:47:44.660Z,10.63
2024-02-27T22:50:11.697Z,9.68
2024-02-27T22:52:39.456Z,12.20
2024-02-27T22:55:06.603Z,9.45
2024-02-27T22:57:33.720Z,10.02
2024-02-27T23:00:00.734Z,9.43
2024-02-27T23:02:27.882Z,9.13
2024-02-27T23:04:55.340Z,10.60
2024-02-27T23:07:24.783Z,9.68
2024-02-27T23:09:51.808Z,9.65
2024-02-27T23:12:19.908Z,9.98
2024-02-27T23:14:47.049Z,10.60
2024-02-27T23:17:14.134Z,10.15
2024-02-27T23:19:41.154Z,8.93
2024-02-27T23:22:08.176Z,9.68
2024-02-27T23:24:35.178Z,11.18
2024-02-27T23:27:02.149Z,9.20
2024-02-27T23:29:29.476Z,9.27
2024-02-27T23:31:56.497Z,8.88
2024-02-27T23:34:23.485Z,9.13
2024-02-27T23:36:50.558Z,8.90
2024-02-27T23:39:17.718Z,8.63
2024-02-27T23:41:44.727Z,9.05
2024-02-27T23:44:11.701Z,8.93
2024-02-27T23:46:41.022Z,8.82
2024-02-27T23:49:08.067Z,9.82
2024-02-27T23:51:39.887Z,9.18
2024-02-27T23:54:06.997Z,8.10
2024-02-27T23:56:34.058Z,9.05
2024-02-27T23:59:01.081Z,8.27
